Time;durP1;ratioP1;P1;durP2;ratioP2;P2;SDS_P1;SDS_P2;PMS_P1;PMS_P2;Temp;Humidity;BMP_temperature;BMP_pressure;BME280_temperature;BME280_humidity;BME280_pressure;Samples;Min_cycle;Max_cycle;Signal;HPM_P1;HPM_P2
2024/01/25 08:09:33;;;;;;;;;;;8.60;99.90;;;;;;6268063;22;19930;-84
2024/01/25 08:12:02;;;;;;;;;;;8.50;99.90;;;;;;6266492;22;19926;-85
2024/01/25 08:14:40;;;;;;;;;;;8.80;99.90;;;;;;6267316;22;19951;-77
2024/01/25 08:17:08;;;;;;;;;;;8.80;99.90;;;;;;6251130;22;19962;-86
2024/01/25 08:19:36;;;;;;;;;;;8.70;99.90;;;;;;6246130;22;19930;-81
2024/01/25 08:22:14;;;;;;;;;;;8.70;99.90;;;;;;6247629;22;20442;-84
2024/01/25 08:24:47;;;;;;;;;;;8.70;99.60;;;;;;6265178;22;19971;-81
2024/01/25 08:27:30;;;;;;;;;;;9.00;97.90;;;;;;6190138;23;20266;-84
2024/01/25 08:30:33;;;;;;;;;;;9.00;97.00;;;;;;6189375;23;19943;-84
2024/01/25 08:33:28;;;;;;;;;;;9.10;96.00;;;;;;6183442;23;19931;-84
2024/01/25 08:35:56;;;;;;;;;;;9.10;96.10;;;;;;6178624;23;20373;-82
2024/01/25 08:38:24;;;;;;;;;;;9.10;96.60;;;;;;6172553;23;19924;-84
2024/01/25 08:40:54;;;;;;;;;;;9.00;97.00;;;;;;6177495;23;19920;-86
2024/01/25 08:43:25;;;;;;;;;;;9.00;97.10;;;;;;6178529;23;19938;-86
2024/01/25 08:45:54;;;;;;;;;;;9.00;97.60;;;;;;6153288;23;19924;-84
2024/01/25 08:48:23;;;;;;;;;;;9.00;97.80;;;;;;6153875;23;19927;-87
2024/01/25 08:50:53;;;;;;;;;;;9.10;97.30;;;;;;6175670;23;19924;-85
2024/01/25 08:53:26;;;;;;;;;;;9.10;97.90;;;;;;6148843;23;20298;-85
2024/01/25 08:56:00;;;;;;;;;;;9.00;98.00;;;;;;6153778;23;19987;-84
2024/01/25 08:58:32;;;;;;;;;;;9.30;97.00;;;;;;6217581;22;19923;-86
2024/01/25 09:01:02;;;;;;;;;;;9.30;97.10;;;;;;6239173;22;19923;-85
2024/01/25 09:03:30;;;;;;;;;;;9.20;97.40;;;;;;6239082;22;19938;-83
2024/01/25 09:06:04;;;;;;;;;;;9.10;98.00;;;;;;6268549;22;19923;-83
2024/01/25 09:08:34;;;;;;;;;;;9.10;97.80;;;;;;6236707;23;19930;-83
2024/01/25 09:11:04;;;;;;;;;;;9.20;97.60;;;;;;6236595;23;20065;-85
2024/01/25 09:13:33;;;;;;;;;;;9.10;98.10;;;;;;6235071;23;20352;-85
2024/01/25 09:16:14;;;;;;;;;;;9.10;97.70;;;;;;6238911;22;20404;-85
2024/01/25 09:18:43;;;;;;;;;;;9.00;97.90;;;;;;6212365;23;19934;-84
2024/01/25 09:21:14;;;;;;;;;;;8.90;98.60;;;;;;6242053;23;19923;-81
2024/01/25 09:23:43;;;;;;;;;;;9.00;98.50;;;;;;6246222;22;20333;-84
2024/01/25 09:26:27;;;;;;;;;;;8.90;99.20;;;;;;6236100;23;19924;-82
2024/01/25 09:28:56;;;;;;;;;;;8.40;97.90;;;;;;6250841;23;19920;-81
2024/01/25 09:31:26;;;;;;;;;;;9.20;97.70;;;;;;6248672;23;19924;-83
2024/01/25 09:33:57;;;;;;;;;;;9.30;97.30;;;;;;6247664;22;20003;-84
2024/01/25 09:36:26;;;;;;;;;;;9.30;97.60;;;;;;6236952;23;20323;-82
2024/01/25 09:38:56;;;;;;;;;;;10.10;97.10;;;;;;6236432;23;19973;-85
2024/01/25 09:41:26;;;;;;;;;;;9.50;97.30;;;;;;6238310;23;19923;-86
2024/01/25 09:43:57;;;;;;;;;;;9.50;97.20;;;;;;6244428;23;19993;-78
2024/01/25 09:46:27;;;;;;;;;;;9.70;96.50;;;;;;6242836;23;20010;-84
2024/01/25 09:48:56;;;;;;;;;;;9.50;97.10;;;;;;6238012;23;19933;-84
2024/01/25 09:51:25;;;;;;;;;;;9.60;96.70;;;;;;6252148;23;19923;-83
2024/01/25 09:54:00;;;;;;;;;;;9.40;96.00;;;;;;6255589;23;19939;-80
2024/01/25 09:56:54;;;;;;;;;;;9.50;96.30;;;;;;6261632;23;19923;-81
2024/01/25 10:08:46;;;;;;;;;;;9.90;95.20;;;;;;6221092;22;20016;-82
2024/01/25 10:11:17;;;;;;;;;;;9.90;95.50;;;;;;6116303;23;19971;-82
2024/01/25 10:13:48;;;;;;;;;;;9.90;95.20;;;;;;6145679;23;19924;-80
2024/01/25 10:16:19;;;;;;;;;;;9.90;95.00;;;;;;6193830;23;19924;-83
2024/01/25 10:18:51;;;;;;;;;;;9.80;94.60;;;;;;6195678;23;19959;-83
2024/01/25 10:21:20;;;;;;;;;;;9.90;95.10;;;;;;6137929;23;19970;-84
2024/01/25 10:23:51;;;;;;;;;;;10.00;95.40;;;;;;6201968;23;19962;-82
2024/01/25 10:26:20;;;;;;;;;;;10.10;95.80;;;;;;6181071;23;19962;-89
2024/01/25 10:28:55;;;;;;;;;;;10.00;95.10;;;;;;6148238;23;19924;-83
2024/01/25 10:31:30;;;;;;;;;;;10.00;95.20;;;;;;6136675;23;19924;-81
2024/01/25 10:34:02;;;;;;;;;;;10.70;94.50;;;;;;6158612;23;19924;-80
2024/01/25 10:36:32;;;;;;;;;;;10.10;94.60;;;;;;6148816;23;19924;-82
2024/01/25 10:39:11;;;;;;;;;;;10.20;94.60;;;;;;6147355;23;19924;-82
2024/01/25 10:41:41;;;;;;;;;;;10.10;94.70;;;;;;6159824;23;19943;-83
2024/01/25 10:44:10;;;;;;;;;;;9.90;94.50;;;;;;6200312;23;19930;-83
2024/01/25 10:46:41;;;;;;;;;;;9.80;94.80;;;;;;6203775;23;19976;-83
2024/01/25 10:49:13;;;;;;;;;;;9.80;94.90;;;;;;6179959;23;20262;-86
2024/01/25 10:51:45;;;;;;;;;;;9.70;95.10;;;;;;6182247;23;19951;-86
2024/01/25 10:54:26;;;;;;;;;;;9.90;94.60;;;;;;6210791;23;19924;-82
2024/01/25 10:56:59;;;;;;;;;;;9.70;95.10;;;;;;6181508;23;20034;-83
2024/01/25 10:59:29;;;;;;;;;;;9.70;95.40;;;;;;6207368;23;19924;-87
2024/01/25 11:02:06;;;;;;;;;;;9.70;95.60;;;;;;6172013;23;19937;-87
2024/01/25 11:04:35;;;;;;;;;;;9.90;95.70;;;;;;6129049;23;19943;-84
2024/01/25 11:07:11;;;;;;;;;;;9.80;95.00;;;;;;6182244;23;19920;-82
2024/01/25 11:09:48;;;;;;;;;;;9.80;94.30;;;;;;6188133;23;20343;-83
2024/01/25 11:12:19;;;;;;;;;;;9.90;93.70;;;;;;6106040;23;19925;-85
2024/01/25 11:15:16;;;;;;;;;;;10.00;94.20;;;;;;6098749;23;19935;-82
2024/01/25 11:17:53;;;;;;;;;;;9.80;93.90;;;;;;6061283;23;19926;-84
2024/01/25 11:20:24;;;;;;;;;;;9.90;94.20;;;;;;6035190;23;19926;-85
2024/01/25 11:23:00;;;;;;;;;;;10.00;94.40;;;;;;6061157;23;19922;-85
2024/01/25 11:25:33;;;;;;;;;;;10.00;93.20;;;;;;6035259;23;19926;-82
2024/01/25 11:28:04;;;;;;;;;;;10.10;93.10;;;;;;6037010;23;19926;-84
2024/01/25 11:30:34;;;;;;;;;;;10.10;92.70;;;;;;6036488;23;19925;-87
2024/01/25 11:33:06;;;;;;;;;;;10.20;92.50;;;;;;6033614;23;19926;-83
2024/01/25 11:38:23;;;;;;;;;;;10.20;91.70;;;;;;6035478;23;19921;-86
2024/01/25 11:40:57;;;;;;;;;;;10.20;92.20;;;;;;6113871;23;19925;-84
2024/01/25 11:43:30;;;;;;;;;;;10.20;92.20;;;;;;6058010;23;19949;-87
2024/01/25 11:46:00;;;;;;;;;;;10.20;92.00;;;;;;6059453;23;19922;-83
2024/01/25 11:48:30;;;;;;;;;;;10.10;92.10;;;;;;6058059;23;19931;-84
2024/01/25 11:51:01;;;;;;;;;;;10.40;92.80;;;;;;6096116;23;19928;-86
2024/01/25 11:53:53;;;;;;;;;;;10.00;92.70;;;;;;6063713;23;20000;-85
2024/01/25 11:56:30;;;;;;;;;;;10.00;92.30;;;;;;6089933;23;19949;-85
2024/01/25 11:59:00;;;;;;;;;;;10.10;92.30;;;;;;6113673;23;20004;-85
2024/01/25 12:01:38;;;;;;;;;;;10.10;92.60;;;;;;6145032;23;20313;-83
2024/01/25 12:04:10;;;;;;;;;;;10.10;92.00;;;;;;6124177;23;20350;-84
2024/01/25 12:10:27;;;;;;;;;;;10.10;92.00;;;;;;6276083;22;20398;-82
2024/01/25 12:13:02;;;;;;;;;;;10.10;92.20;;;;;;6207262;23;20250;-85
2024/01/25 12:15:41;;;;;;;;;;;10.20;92.60;;;;;;6184685;23;19924;-84
2024/01/25 12:18:20;;;;;;;;;;;10.20;92.00;;;;;;6213259;23;19924;-87
2024/01/25 12:20:57;;;;;;;;;;;10.10;91.90;;;;;;6183110;23;19971;-83
2024/01/25 12:23:33;;;;;;;;;;;10.20;92.00;;;;;;6210171;23;19963;-85
2024/01/25 12:26:06;;;;;;;;;;;10.10;91.60;;;;;;6206966;23;19924;-86
2024/01/25 12:29:10;;;;;;;;;;;10.10;91.40;;;;;;6208694;23;20021;-86
2024/01/25 12:31:38;;;;;;;;;;;10.10;91.20;;;;;;6181235;23;20317;-84
2024/01/25 12:34:16;;;;;;;;;;;10.10;91.50;;;;;;6182803;23;20344;-82
2024/01/25 12:36:47;;;;;;;;;;;10.10;91.40;;;;;;6181178;23;20362;-87
2024/01/25 12:39:16;;;;;;;;;;;10.10;90.80;;;;;;6178822;23;19951;-85
2024/01/25 12:41:52;;;;;;;;;;;10.10;91.20;;;;;;6203113;23;19947;-86
2024/01/25 12:44:24;;;;;;;;;;;10.10;91.70;;;;;;6211957;22;19927;-88
2024/01/25 12:46:56;;;;;;;;;;;10.00;91.00;;;;;;6241100;22;20006;-85
2024/01/25 12:49:28;;;;;;;;;;;9.90;90.90;;;;;;6243829;22;19927;-85
2024/01/25 12:51:57;;;;;;;;;;;9.90;91.30;;;;;;6239986;22;19923;-87
2024/01/25 12:54:38;;;;;;;;;;;9.90;91.20;;;;;;6266522;22;20016;-84
2024/01/25 12:57:36;;;;;;;;;;;9.90;91.50;;;;;;6242159;22;19994;-86
2024/01/25 13:00:11;;;;;;;;;;;9.90;90.80;;;;;;6274293;22;19949;-87
2024/01/25 13:03:40;;;;;;;;;;;9.80;90.40;;;;;;5092979;27;19912;-82
2024/01/25 13:06:27;;;;;;;;;;;9.90;90.60;;;;;;5040575;28;20402;-85
2024/01/25 13:08:59;;;;;;;;;;;9.80;91.10;;;;;;4993951;28;19925;-88
2024/01/25 13:11:35;;;;;;;;;;;9.80;91.20;;;;;;5011501;28;19939;-86
2024/01/25 13:14:06;;;;;;;;;;;9.80;90.70;;;;;;5017351;28;19971;-89
2024/01/25 13:16:38;;;;;;;;;;;9.80;90.80;;;;;;5042637;28;19940;-84
2024/01/25 13:19:24;;;;;;;;;;;9.70;90.60;;;;;;5000441;28;20325;-83
2024/01/25 13:21:55;;;;;;;;;;;9.70;90.70;;;;;;5038270;28;19932;-86
2024/01/25 13:24:31;;;;;;;;;;;9.60;90.90;;;;;;5060111;28;19937;-84
2024/01/25 13:27:03;;;;;;;;;;;9.70;91.30;;;;;;5025145;28;19940;-87
2024/01/25 13:29:32;;;;;;;;;;;9.60;91.40;;;;;;5000225;28;20023;-85
2024/01/25 13:32:04;;;;;;;;;;;9.50;91.90;;;;;;5016229;28;19936;-80
2024/01/25 13:34:38;;;;;;;;;;;9.60;91.60;;;;;;4979364;28;19932;-88
2024/01/25 13:37:32;;;;;;;;;;;9.60;91.90;;;;;;5015206;28;19933;-86
2024/01/25 13:40:05;;;;;;;;;;;9.60;92.30;;;;;;5021935;28;19925;-86
2024/01/25 13:42:34;;;;;;;;;;;9.50;91.70;;;;;;5011662;28;19925;-85
2024/01/25 13:45:03;;;;;;;;;;;9.80;92.50;;;;;;5016451;28;20028;-88
2024/01/25 13:47:35;;;;;;;;;;;9.50;92.50;;;;;;5021531;28;19960;-88
2024/01/25 13:50:31;;;;;;;;;;;9.50;92.80;;;;;;4990680;28;19940;-90
2024/01/25 14:08:52;;;;;;;;;;;9.50;92.20;;;;;;4928535;29;19928;-81
2024/01/25 14:11:21;;;;;;;;;;;9.50;92.30;;;;;;4934025;29;19928;-80
2024/01/25 14:13:49;;;;;;;;;;;9.40;92.40;;;;;;4914955;29;19962;-83
2024/01/25 14:16:18;;;;;;;;;;;9.40;92.40;;;;;;4920919;29;19928;-81
2024/01/25 14:18:49;;;;;;;;;;;9.40;92.50;;;;;;4907993;29;19994;-78
2024/01/25 14:21:20;;;;;;;;;;;9.40;92.70;;;;;;4906434;29;20530;-78
2024/01/25 14:23:49;;;;;;;;;;;9.40;92.60;;;;;;4906437;29;19927;-81
2024/01/25 14:26:20;;;;;;;;;;;9.40;92.60;;;;;;4910152;29;20043;-84
2024/01/25 14:28:48;;;;;;;;;;;9.30;93.10;;;;;;4923439;29;19927;-80
2024/01/25 14:31:17;;;;;;;;;;;9.10;93.70;;;;;;4898760;29;19952;-80
2024/01/25 14:33:46;;;;;;;;;;;7.60;93.20;;;;;;4906905;29;19932;-81
2024/01/25 14:36:15;;;;;;;;;;;9.60;93.80;;;;;;4921186;29;19960;-83
2024/01/25 14:38:44;;;;;;;;;;;9.10;93.30;;;;;;4903609;29;20024;-81
2024/01/25 14:41:12;;;;;;;;;;;9.10;93.00;;;;;;4906010;29;20027;-82
2024/01/25 14:43:43;;;;;;;;;;;9.10;93.50;;;;;;4905665;29;19935;-83
2024/01/25 14:46:13;;;;;;;;;;;9.20;93.20;;;;;;4900928;29;20022;-81
2024/01/25 14:48:41;;;;;;;;;;;8.60;93.50;;;;;;4907342;29;19928;-82
2024/01/25 14:51:13;;;;;;;;;;;8.90;93.80;;;;;;4919050;29;20371;-81
2024/01/25 14:53:42;;;;;;;;;;;9.00;94.30;;;;;;4909581;29;19931;-80
2024/01/25 14:56:12;;;;;;;;;;;9.40;94.20;;;;;;4907262;29;19951;-81
2024/01/25 14:58:48;;;;;;;;;;;8.90;93.80;;;;;;4919414;29;19942;-79
2024/01/25 15:01:18;;;;;;;;;;;9.00;94.30;;;;;;4893855;29;19974;-82
2024/01/25 15:03:49;;;;;;;;;;;8.90;93.60;;;;;;4911203;29;19932;-77
2024/01/25 15:06:19;;;;;;;;;;;8.80;93.90;;;;;;4898746;29;20005;-76
2024/01/25 15:08:52;;;;;;;;;;;8.80;94.00;;;;;;4886898;29;19931;-75
2024/01/25 15:11:23;;;;;;;;;;;8.70;94.20;;;;;;4902642;29;19938;-79
2024/01/25 15:13:53;;;;;;;;;;;8.70;93.80;;;;;;4903049;29;19931;-75
2024/01/25 15:16:22;;;;;;;;;;;8.70;94.00;;;;;;4910019;29;19928;-76
2024/01/25 15:18:51;;;;;;;;;;;8.70;94.00;;;;;;4896376;29;19962;-76
2024/01/25 15:21:18;;;;;;;;;;;8.80;93.50;;;;;;4901054;29;19966;-77
2024/01/25 15:23:47;;;;;;;;;;;8.80;93.60;;;;;;4907733;29;20006;-78
2024/01/25 15:26:15;;;;;;;;;;;8.80;93.50;;;;;;4895951;29;19928;-73
2024/01/25 15:28:45;;;;;;;;;;;8.70;93.40;;;;;;4914028;29;19936;-76
2024/01/25 15:31:13;;;;;;;;;;;8.80;93.70;;;;;;4899522;29;20306;-79
2024/01/25 15:33:42;;;;;;;;;;;8.70;94.20;;;;;;4899258;29;20014;-78
2024/01/25 15:36:13;;;;;;;;;;;8.60;94.40;;;;;;4900314;29;20330;-77
2024/01/25 15:38:42;;;;;;;;;;;8.50;94.70;;;;;;4911150;29;19993;-76
2024/01/25 15:41:11;;;;;;;;;;;8.60;94.20;;;;;;4900572;29;19932;-79
2024/01/25 15:43:39;;;;;;;;;;;8.60;94.70;;;;;;4912024;29;19935;-79
2024/01/25 15:46:08;;;;;;;;;;;8.50;94.90;;;;;;4888618;29;19962;-77
2024/01/25 15:48:39;;;;;;;;;;;8.40;95.30;;;;;;4901233;29;19928;-76
2024/01/25 15:51:08;;;;;;;;;;;8.40;95.20;;;;;;4890026;29;19931;-76
2024/01/25 15:53:37;;;;;;;;;;;8.30;95.40;;;;;;4912393;29;19931;-76
2024/01/25 15:56:05;;;;;;;;;;;8.40;95.30;;;;;;4897972;29;19928;-76
2024/01/25 15:58:36;;;;;;;;;;;8.50;95.00;;;;;;4892328;29;19959;-77
2024/01/25 16:01:05;;;;;;;;;;;8.60;94.70;;;;;;4910386;29;19953;-78
2024/01/25 16:03:33;;;;;;;;;;;8.50;95.00;;;;;;4894978;29;19931;-76
2024/01/25 16:06:03;;;;;;;;;;;8.50;94.90;;;;;;4895930;29;19942;-74
2024/01/25 16:08:37;;;;;;;;;;;8.50;95.20;;;;;;4889583;29;19954;-74
2024/01/25 16:11:07;;;;;;;;;;;8.30;95.40;;;;;;4893628;29;19928;-78
2024/01/25 16:13:35;;;;;;;;;;;8.30;95.40;;;;;;4906651;29;19935;-74
2024/01/25 16:16:04;;;;;;;;;;;8.20;95.60;;;;;;4888952;29;20031;-75
2024/01/25 16:18:33;;;;;;;;;;;8.20;95.60;;;;;;4901209;29;19934;-75
2024/01/25 16:21:05;;;;;;;;;;;8.30;95.50;;;;;;4900482;29;20417;-77
2024/01/25 16:23:41;;;;;;;;;;;8.30;95.40;;;;;;4892567;29;19943;-76
2024/01/25 16:26:11;;;;;;;;;;;8.30;95.10;;;;;;4897495;29;19952;-75
2024/01/25 16:28:43;;;;;;;;;;;8.30;95.10;;;;;;4891494;29;19932;-77
2024/01/25 16:31:13;;;;;;;;;;;8.30;95.20;;;;;;4908543;29;19931;-80
2024/01/25 16:33:41;;;;;;;;;;;8.30;95.30;;;;;;4908322;29;19931;-77
2024/01/25 16:36:09;;;;;;;;;;;8.20;95.60;;;;;;4893920;29;20510;-77
2024/01/25 16:38:39;;;;;;;;;;;8.20;95.60;;;;;;4896441;29;19939;-77
2024/01/25 16:41:08;;;;;;;;;;;8.20;95.40;;;;;;4906671;29;19943;-77
2024/01/25 16:43:36;;;;;;;;;;;8.00;96.10;;;;;;4891502;29;19999;-76
2024/01/25 16:46:05;;;;;;;;;;;8.10;95.80;;;;;;4895935;29;20302;-77
2024/01/25 16:48:34;;;;;;;;;;;8.10;95.80;;;;;;4908532;29;20288;-77
2024/01/25 16:51:03;;;;;;;;;;;8.10;96.00;;;;;;4905833;29;19935;-75
2024/01/25 16:53:31;;;;;;;;;;;8.00;96.00;;;;;;4912573;29;19931;-78
2024/01/25 16:56:00;;;;;;;;;;;8.00;95.90;;;;;;4890895;29;19969;-76
2024/01/25 16:58:29;;;;;;;;;;;7.90;96.20;;;;;;4890713;29;20014;-77
2024/01/25 17:00:57;;;;;;;;;;;7.80;96.40;;;;;;4891841;29;19962;-76
2024/01/25 17:03:25;;;;;;;;;;;7.80;96.40;;;;;;4892960;29;20038;-77
2024/01/25 17:05:53;;;;;;;;;;;7.90;96.40;;;;;;4903105;29;19992;-77
2024/01/25 17:08:21;;;;;;;;;;;7.70;96.50;;;;;;4905518;29;19928;-78
2024/01/25 17:10:50;;;;;;;;;;;7.80;96.60;;;;;;4890345;29;19959;-76
2024/01/25 17:13:19;;;;;;;;;;;7.60;97.10;;;;;;4893563;29;19977;-77
2024/01/25 17:15:48;;;;;;;;;;;7.60;97.00;;;;;;4897096;29;20034;-76
2024/01/25 17:18:16;;;;;;;;;;;7.60;97.00;;;;;;4895483;29;19931;-81
2024/01/25 17:20:44;;;;;;;;;;;7.60;97.10;;;;;;4894026;29;20000;-77
2024/01/25 17:23:12;;;;;;;;;;;7.60;97.00;;;;;;4905920;29;19931;-77
2024/01/25 17:25:41;;;;;;;;;;;7.40;97.60;;;;;;4909206;29;19934;-76
2024/01/25 17:28:09;;;;;;;;;;;7.40;97.50;;;;;;4893711;29;19938;-76
2024/01/25 17:30:39;;;;;;;;;;;7.30;97.90;;;;;;4897264;29;20022;-77
2024/01/25 17:33:07;;;;;;;;;;;7.40;97.90;;;;;;4893297;29;19975;-76
2024/01/25 17:35:35;;;;;;;;;;;7.40;97.90;;;;;;4898644;29;19927;-77
2024/01/25 17:38:04;;;;;;;;;;;7.30;98.00;;;;;;4898697;29;19928;-77
2024/01/25 17:40:32;;;;;;;;;;;7.30;98.00;;;;;;4894248;29;19939;-75
2024/01/25 17:43:00;;;;;;;;;;;7.30;98.20;;;;;;4891690;29;19980;-76
2024/01/25 17:45:28;;;;;;;;;;;7.30;98.40;;;;;;4896015;29;20015;-76
2024/01/25 17:47:58;;;;;;;;;;;7.10;98.80;;;;;;4891645;29;19938;-78
2024/01/25 17:50:27;;;;;;;;;;;7.30;98.50;;;;;;4909945;29;19931;-76
2024/01/25 17:52:55;;;;;;;;;;;7.30;98.40;;;;;;4897260;29;19932;-76
2024/01/25 17:55:23;;;;;;;;;;;7.20;98.70;;;;;;4900262;29;19952;-76
2024/01/25 17:57:51;;;;;;;;;;;7.30;98.40;;;;;;4896377;29;20573;-77
2024/01/25 18:00:20;;;;;;;;;;;7.20;98.50;;;;;;4908327;29;19932;-77
2024/01/25 18:02:48;;;;;;;;;;;7.10;98.80;;;;;;4893330;29;20449;-77
2024/01/25 18:05:17;;;;;;;;;;;7.00;99.50;;;;;;4916796;29;19931;-78
2024/01/25 18:07:46;;;;;;;;;;;7.30;98.90;;;;;;4915365;29;19935;-76
2024/01/25 18:10:14;;;;;;;;;;;7.20;99.00;;;;;;4898183;29;19962;-76
2024/01/25 18:12:43;;;;;;;;;;;7.20;99.00;;;;;;4895799;29;19931;-77
2024/01/25 18:15:13;;;;;;;;;;;7.20;99.40;;;;;;4896347;29;19928;-77
2024/01/25 18:17:41;;;;;;;;;;;7.20;99.30;;;;;;4899300;29;19973;-76
2024/01/25 18:20:11;;;;;;;;;;;7.10;99.60;;;;;;4913414;29;19978;-77
2024/01/25 18:22:41;;;;;;;;;;;7.20;99.50;;;;;;4894795;29;19982;-76
2024/01/25 18:25:10;;;;;;;;;;;7.20;99.40;;;;;;4897117;29;20031;-76
2024/01/25 18:27:38;;;;;;;;;;;7.20;99.50;;;;;;4896284;29;19935;-77
2024/01/25 18:30:08;;;;;;;;;;;7.20;99.50;;;;;;4900881;29;19942;-77
2024/01/25 18:32:37;;;;;;;;;;;7.20;99.60;;;;;;4915018;29;20346;-78
2024/01/25 18:35:07;;;;;;;;;;;7.20;99.50;;;;;;4915254;29;19927;-76
2024/01/25 18:37:36;;;;;;;;;;;7.30;99.60;;;;;;4897584;29;20302;-76
2024/01/25 18:40:07;;;;;;;;;;;7.10;99.90;;;;;;4910815;29;19939;-76
2024/01/25 18:42:36;;;;;;;;;;;6.90;99.90;;;;;;4897642;29;20018;-77
2024/01/25 18:45:06;;;;;;;;;;;6.90;99.90;;;;;;4913965;29;19927;-76
2024/01/25 18:47:36;;;;;;;;;;;6.80;99.90;;;;;;4914854;29;20374;-77
2024/01/25 18:50:06;;;;;;;;;;;7.00;99.90;;;;;;4914023;29;19949;-79
2024/01/25 18:52:36;;;;;;;;;;;7.00;99.90;;;;;;4900350;29;19927;-79
2024/01/25 18:55:08;;;;;;;;;;;6.90;99.90;;;;;;4882166;29;19928;-79
2024/01/25 18:57:39;;;;;;;;;;;7.00;99.90;;;;;;4878340;29;19932;-81
2024/01/25 19:00:09;;;;;;;;;;;7.00;99.90;;;;;;4879419;29;19942;-77
2024/01/25 19:02:39;;;;;;;;;;;7.20;99.90;;;;;;4872471;29;19961;-78
2024/01/25 19:05:09;;;;;;;;;;;7.20;99.90;;;;;;4877798;29;19935;-78
2024/01/25 19:07:40;;;;;;;;;;;7.20;99.90;;;;;;4880207;29;19943;-79
2024/01/25 19:10:12;;;;;;;;;;;7.30;99.90;;;;;;4877269;29;19960;-78
2024/01/25 19:12:41;;;;;;;;;;;7.30;99.80;;;;;;4878498;29;19942;-80
2024/01/25 19:15:11;;;;;;;;;;;7.20;99.90;;;;;;4878804;29;19928;-80
2024/01/25 19:17:43;;;;;;;;;;;7.20;99.90;;;;;;4879150;29;19928;-77
2024/01/25 19:20:13;;;;;;;;;;;7.10;99.90;;;;;;4881146;29;19927;-80
2024/01/25 19:22:44;;;;;;;;;;;7.10;99.90;;;;;;4865008;29;19935;-79
2024/01/25 19:25:16;;;;;;;;;;;7.10;99.90;;;;;;4877944;29;19928;-79
2024/01/25 19:27:46;;;;;;;;;;;7.10;99.90;;;;;;4881280;29;19932;-79
2024/01/25 19:30:16;;;;;;;;;;;7.10;99.90;;;;;;4861335;29;19935;-78
2024/01/25 19:32:46;;;;;;;;;;;7.10;99.90;;;;;;4885687;29;19981;-79
2024/01/25 19:35:18;;;;;;;;;;;7.00;99.90;;;;;;4898357;29;19931;-78
2024/01/25 19:37:48;;;;;;;;;;;7.00;99.90;;;;;;4915059;29;20411;-78
2024/01/25 19:40:20;;;;;;;;;;;7.20;99.90;;;;;;4910278;29;19932;-79
2024/01/25 19:42:50;;;;;;;;;;;7.10;99.90;;;;;;4898864;29;19963;-78
2024/01/25 19:45:20;;;;;;;;;;;7.20;99.90;;;;;;4897928;29;20027;-78
2024/01/25 19:47:50;;;;;;;;;;;7.10;99.90;;;;;;4901790;29;19928;-80
2024/01/25 19:50:21;;;;;;;;;;;7.20;99.90;;;;;;4915701;29;20026;-79
2024/01/25 19:52:55;;;;;;;;;;;7.20;99.90;;;;;;4902202;29;19990;-80
2024/01/25 19:55:27;;;;;;;;;;;7.30;99.90;;;;;;4917840;29;19935;-78
2024/01/25 19:57:58;;;;;;;;;;;7.30;99.90;;;;;;4900892;29;19952;-77
2024/01/25 20:00:30;;;;;;;;;;;7.30;99.90;;;;;;4913261;29;21083;-81
2024/01/25 20:03:03;;;;;;;;;;;7.30;99.90;;;;;;4899371;29;19928;-78
2024/01/25 20:05:34;;;;;;;;;;;7.20;99.90;;;;;;4901488;29;19941;-78
2024/01/25 20:08:04;;;;;;;;;;;7.20;99.90;;;;;;4915369;29;19992;-79
2024/01/25 20:10:36;;;;;;;;;;;7.20;99.90;;;;;;4913710;29;19931;-80
2024/01/25 20:13:06;;;;;;;;;;;7.10;99.90;;;;;;4916222;29;20421;-77
2024/01/25 20:15:36;;;;;;;;;;;7.10;99.90;;;;;;4899560;29;19987;-79
2024/01/25 20:18:06;;;;;;;;;;;7.20;99.90;;;;;;4914506;29;19934;-78
2024/01/25 20:20:34;;;;;;;;;;;7.20;99.90;;;;;;4900273;29;19951;-80
2024/01/25 20:23:17;;;;;;;;;;;7.20;99.90;;;;;;4901651;29;19931;-82
2024/01/25 20:25:51;;;;;;;;;;;7.20;99.90;;;;;;4902710;29;19938;-79
2024/01/25 20:28:23;;;;;;;;;;;7.20;99.90;;;;;;4916925;29;19934;-79
2024/01/25 20:30:53;;;;;;;;;;;7.10;99.90;;;;;;4903965;29;19932;-81
2024/01/25 20:33:24;;;;;;;;;;;7.30;99.90;;;;;;4903830;29;19932;-79
2024/01/25 20:35:57;;;;;;;;;;;7.20;99.90;;;;;;4920254;29;20335;-81
2024/01/25 20:38:28;;;;;;;;;;;7.30;99.90;;;;;;4899661;29;19928;-77
2024/01/25 20:41:00;;;;;;;;;;;7.30;99.90;;;;;;4920058;29;19931;-81
2024/01/25 20:43:43;;;;;;;;;;;7.30;99.90;;;;;;4915748;29;19927;-75
2024/01/25 20:46:35;;;;;;;;;;;7.20;99.90;;;;;;4871231;29;19939;-74
2024/01/25 20:49:09;;;;;;;;;;;7.20;99.90;;;;;;4856577;29;20299;-74
2024/01/25 20:51:38;;;;;;;;;;;7.20;99.90;;;;;;4871706;29;19957;-75
2024/01/25 20:54:09;;;;;;;;;;;7.20;99.90;;;;;;4871493;29;19938;-74
2024/01/25 20:56:52;;;;;;;;;;;7.20;99.90;;;;;;4872252;29;20019;-74
2024/01/25 20:59:21;;;;;;;;;;;7.00;99.90;;;;;;4848500;29;19979;-74
2024/01/25 21:01:50;;;;;;;;;;;5.40;99.90;;;;;;4871631;29;19935;-76
2024/01/25 21:04:19;;;;;;;;;;;7.00;99.90;;;;;;4879867;29;19950;-74
2024/01/25 21:06:54;;;;;;;;;;;7.00;99.90;;;;;;4911504;29;20379;-75
2024/01/25 21:09:23;;;;;;;;;;;7.10;99.90;;;;;;4892424;29;20026;-75
2024/01/25 21:11:54;;;;;;;;;;;7.10;99.90;;;;;;4910402;29;19939;-75
2024/01/25 21:14:26;;;;;;;;;;;7.00;99.90;;;;;;4907889;29;20544;-75
2024/01/25 21:16:56;;;;;;;;;;;7.30;99.90;;;;;;4898618;29;19971;-75
2024/01/25 21:19:24;;;;;;;;;;;7.00;99.90;;;;;;4906256;29;19931;-75
2024/01/25 21:21:55;;;;;;;;;;;7.10;99.90;;;;;;4894894;29;20013;-75
2024/01/25 21:24:26;;;;;;;;;;;7.00;99.90;;;;;;4897405;29;20356;-72
2024/01/25 21:26:57;;;;;;;;;;;7.00;99.90;;;;;;4895981;29;19928;-75
2024/01/25 21:29:26;;;;;;;;;;;7.00;99.90;;;;;;4899819;29;20399;-74
2024/01/25 21:31:55;;;;;;;;;;;7.00;99.90;;;;;;4912210;29;19928;-75
2024/01/25 21:34:25;;;;;;;;;;;7.00;99.90;;;;;;4912659;29;19927;-74
2024/01/25 21:36:53;;;;;;;;;;;7.00;99.90;;;;;;4901511;29;19927;-74
2024/01/25 21:39:21;;;;;;;;;;;6.90;99.90;;;;;;4893864;29;19932;-75
2024/01/25 21:41:52;;;;;;;;;;;6.90;99.90;;;;;;4911682;29;19928;-78
2024/01/25 21:44:24;;;;;;;;;;;6.80;99.90;;;;;;4861368;29;19983;-75
2024/01/25 21:46:52;;;;;;;;;;;6.90;99.90;;;;;;4915745;29;20413;-75
2024/01/25 21:49:24;;;;;;;;;;;6.90;99.90;;;;;;4878700;29;20395;-75
2024/01/25 21:51:52;;;;;;;;;;;6.50;99.90;;;;;;4877037;29;19938;-74
2024/01/25 21:54:25;;;;;;;;;;;6.80;99.90;;;;;;4872992;29;20392;-74
2024/01/25 21:56:54;;;;;;;;;;;6.70;99.90;;;;;;4875980;29;19932;-73
2024/01/25 21:59:29;;;;;;;;;;;6.70;99.90;;;;;;4880066;29;21673;-75
2024/01/25 22:01:57;;;;;;;;;;;6.70;99.90;;;;;;4877072;29;19951;-75
2024/01/25 22:04:26;;;;;;;;;;;6.70;99.90;;;;;;4866673;29;19927;-75
2024/01/25 22:06:54;;;;;;;;;;;6.70;99.90;;;;;;4875584;29;19935;-74
2024/01/25 22:09:24;;;;;;;;;;;6.10;99.90;;;;;;4862941;29;19932;-75
2024/01/25 22:11:53;;;;;;;;;;;6.60;99.90;;;;;;4875299;29;20350;-76
2024/01/25 22:14:21;;;;;;;;;;;6.60;99.90;;;;;;4876327;29;20007;-76
2024/01/25 22:16:50;;;;;;;;;;;6.50;99.90;;;;;;4876086;29;20004;-75
2024/01/25 22:19:19;;;;;;;;;;;6.60;99.90;;;;;;4879559;29;19935;-74
2024/01/25 22:21:51;;;;;;;;;;;6.60;99.90;;;;;;4916752;29;19927;-76
2024/01/25 22:24:24;;;;;;;;;;;6.60;99.90;;;;;;4899663;29;19927;-76
2024/01/25 22:26:52;;;;;;;;;;;6.60;99.90;;;;;;4911515;29;19938;-74
2024/01/25 22:29:21;;;;;;;;;;;6.60;99.90;;;;;;4910789;29;20078;-75
2024/01/25 22:31:49;;;;;;;;;;;6.50;99.90;;;;;;4897145;29;19937;-75
2024/01/25 22:34:23;;;;;;;;;;;6.30;99.90;;;;;;4914752;29;19966;-75
2024/01/25 22:36:54;;;;;;;;;;;6.50;99.90;;;;;;4899133;29;19927;-76
2024/01/25 22:39:23;;;;;;;;;;;6.60;99.90;;;;;;4911395;29;19931;-75
2024/01/25 22:41:51;;;;;;;;;;;6.50;99.90;;;;;;4910483;29;19987;-74
2024/01/25 22:44:19;;;;;;;;;;;6.40;99.90;;;;;;4899140;29;19975;-74
2024/01/25 22:46:50;;;;;;;;;;;6.20;99.90;;;;;;4912020;29;19927;-74
2024/01/25 22:49:31;;;;;;;;;;;6.20;99.90;;;;;;4898171;29;19927;-75
2024/01/25 22:51:59;;;;;;;;;;;6.20;99.90;;;;;;4910923;29;20383;-75
2024/01/25 22:54:32;;;;;;;;;;;6.20;99.90;;;;;;4896979;29;20352;-75
2024/01/25 22:57:01;;;;;;;;;;;6.20;99.90;;;;;;4897515;29;19927;-75
2024/01/25 22:59:54;;;;;;;;;;;6.20;99.90;;;;;;4895337;29;19928;-75
2024/01/25 23:02:25;;;;;;;;;;;6.20;99.90;;;;;;4894388;29;19928;-74
2024/01/25 23:04:57;;;;;;;;;;;6.20;99.90;;;;;;4894429;29;19963;-74
2024/01/25 23:07:27;;;;;;;;;;;6.10;99.90;;;;;;4894373;29;19958;-73
2024/01/25 23:09:58;;;;;;;;;;;6.10;99.90;;;;;;4895076;29;19931;-75
2024/01/25 23:12:26;;;;;;;;;;;6.10;99.90;;;;;;4894155;29;19995;-75
2024/01/25 23:14:57;;;;;;;;;;;6.00;99.90;;;;;;4896414;29;19975;-75
2024/01/25 23:17:32;;;;;;;;;;;6.00;99.90;;;;;;4911503;29;20306;-75
2024/01/25 23:20:03;;;;;;;;;;;6.10;99.90;;;;;;4913247;29;20292;-75
2024/01/25 23:22:36;;;;;;;;;;;6.00;99.90;;;;;;4907692;29;20018;-74
2024/01/25 23:25:05;;;;;;;;;;;5.90;99.90;;;;;;4897845;29;20470;-75
2024/01/25 23:27:34;;;;;;;;;;;6.10;99.90;;;;;;4903659;29;19935;-80
2024/01/25 23:30:02;;;;;;;;;;;6.10;99.90;;;;;;4919358;29;20292;-79
2024/01/25 23:32:34;;;;;;;;;;;6.40;99.90;;;;;;4915733;29;19928;-77
2024/01/25 23:35:04;;;;;;;;;;;6.10;99.90;;;;;;4903807;29;19935;-79